Time;durP1;ratioP1;P1;durP2;ratioP2;P2;SDS_P1;SDS_P2;PMS_P1;PMS_P2;Temp;Humidity;BMP_temperature;BMP_pressure;BME280_temperature;BME280_humidity;BME280_pressure;Samples;Min_cycle;Max_cycle;Signal;HPM_P1;HPM_P2
2022/01/28 00:01:35;;;;;;;8.13;4.63;;;9.70;99.90;;;;;;5031451;28;20060;-69
2022/01/28 00:04:40;;;;;;;12.25;4.15;;;9.70;99.90;;;;;;5031019;28;20037;-69
2022/01/28 00:07:44;;;;;;;7.22;4.30;;;9.70;99.90;;;;;;5029888;28;20507;-68
2022/01/28 00:10:51;;;;;;;11.65;4.82;;;9.70;99.90;;;;;;5031378;28;20045;-69
2022/01/28 00:14:07;;;;;;;12.30;6.63;;;9.70;99.90;;;;;;5031286;28;20052;-68
2022/01/28 00:36:24;;;;;;;10.57;4.53;;;9.70;99.90;;;;;;5030966;28;20047;-69
2022/01/28 00:41:03;;;;;;;14.40;5.20;;;9.60;99.90;;;;;;5030916;28;20331;-69
2022/01/28 00:44:08;;;;;;;21.55;8.55;;;9.60;99.90;;;;;;5030004;28;20491;-68
2022/01/28 00:47:12;;;;;;;9.35;4.00;;;9.60;99.90;;;;;;5030619;28;20064;-68
2022/01/28 00:50:17;;;;;;;5.50;3.17;;;9.60;99.90;;;;;;5030263;28;20037;-69
2022/01/28 00:53:21;;;;;;;7.63;3.40;;;9.70;99.90;;;;;;5030335;28;20033;-68
2022/01/28 00:56:25;;;;;;;4.40;2.63;;;9.70;99.90;;;;;;5030221;28;20041;-69
2022/01/28 00:59:29;;;;;;;4.38;3.33;;;9.70;99.90;;;;;;5029937;28;20037;-69
2022/01/28 01:02:33;;;;;;;7.55;3.92;;;9.70;99.90;;;;;;5030027;28;20038;-68
2022/01/28 01:05:37;;;;;;;6.93;3.75;;;9.70;99.90;;;;;;5030145;28;20030;-69
2022/01/28 01:08:43;;;;;;;5.20;2.75;;;9.80;99.90;;;;;;5030080;28;20287;-68
2022/01/28 01:11:47;;;;;;;4.60;3.13;;;9.70;99.90;;;;;;5030429;28;20038;-69
2022/01/28 01:14:51;;;;;;;10.32;3.47;;;9.70;99.90;;;;;;5030188;28;20042;-69
2022/01/28 01:21:10;;;;;;;10.60;4.03;;;9.70;99.90;;;;;;5034434;28;20041;-68
2022/01/28 01:24:22;;;;;;;13.30;4.88;;;9.70;99.90;;;;;;5034075;28;20040;-69
2022/01/28 01:27:28;;;;;;;11.13;5.40;;;9.70;99.90;;;;;;5034066;28;20167;-69
2022/01/28 01:30:38;;;;;;;13.60;5.80;;;9.70;99.90;;;;;;5033957;28;20411;-69
2022/01/28 01:33:59;;;;;;;17.42;6.10;;;9.60;99.90;;;;;;5034170;28;20064;-69
2022/01/28 01:37:03;;;;;;;12.48;4.90;;;9.60;99.90;;;;;;5033658;28;20404;-69
2022/01/28 01:40:08;;;;;;;9.20;3.55;;;9.60;99.90;;;;;;5033270;28;20049;-69
2022/01/28 01:52:50;;;;;;;5.90;2.95;;;9.60;99.90;;;;;;5033524;28;20033;-69
2022/01/28 01:55:55;;;;;;;5.20;3.38;;;9.60;99.90;;;;;;5033689;28;20037;-68
2022/01/28 01:59:00;;;;;;;6.35;3.13;;;9.60;99.90;;;;;;5032942;28;20488;-68
2022/01/28 02:02:06;;;;;;;6.20;3.58;;;9.60;99.90;;;;;;5033506;28;20493;-68
2022/01/28 02:05:10;;;;;;;3.90;3.13;;;9.60;99.90;;;;;;5033404;28;20045;-68
2022/01/28 02:08:14;;;;;;;8.18;3.53;;;9.60;99.90;;;;;;5032859;28;20046;-68
2022/01/28 02:11:18;;;;;;;6.65;3.40;;;9.60;99.90;;;;;;5033192;28;20049;-69
2022/01/28 02:14:22;;;;;;;5.55;2.97;;;9.60;99.90;;;;;;5033400;28;20049;-68
2022/01/28 02:17:26;;;;;;;9.18;4.32;;;9.60;99.90;;;;;;5033093;28;20041;-69
2022/01/28 02:20:42;;;;;;;15.90;5.18;;;9.60;99.90;;;;;;5032964;28;20033;-69
2022/01/28 02:23:50;;;;;;;14.30;5.70;;;9.60;99.90;;;;;;5032943;28;20400;-69
2022/01/28 02:26:54;;;;;;;13.35;4.97;;;9.60;99.90;;;;;;5032982;28;20048;-69
2022/01/28 02:29:59;;;;;;;11.88;4.30;;;9.60;99.90;;;;;;5030144;28;20053;-69
2022/01/28 02:33:16;;;;;;;6.20;3.67;;;9.60;99.90;;;;;;5033053;28;20044;-68
2022/01/28 02:36:19;;;;;;;6.57;3.55;;;9.60;99.90;;;;;;5032974;28;20029;-69
2022/01/28 02:39:24;;;;;;;8.07;3.90;;;9.70;99.90;;;;;;5032274;28;20046;-68
2022/01/28 02:42:44;;;;;;;7.10;2.90;;;9.70;99.90;;;;;;5032727;28;20493;-68
2022/01/28 02:45:50;;;;;;;6.35;3.00;;;9.60;99.90;;;;;;5033032;28;20037;-69
2022/01/28 02:49:02;;;;;;;5.63;3.25;;;9.60;99.90;;;;;;5032250;28;20358;-69
2022/01/28 02:52:18;;;;;;;8.10;3.28;;;9.60;99.90;;;;;;5032720;28;20511;-69
2022/01/28 02:55:22;;;;;;;4.43;3.15;;;9.60;99.90;;;;;;5032830;28;20049;-68
2022/01/28 02:58:27;;;;;;;7.78;3.30;;;9.60;99.90;;;;;;5032201;28;20037;-68
2022/01/28 03:01:30;;;;;;;11.07;3.17;;;9.60;99.90;;;;;;5032571;28;20041;-68
2022/01/28 03:07:45;;;;;;;13.80;5.10;;;9.60;99.90;;;;;;5032947;28;20069;-68
2022/01/28 03:14:32;;;;;;;6.22;3.42;;;9.60;99.90;;;;;;5032337;28;20049;-68
2022/01/28 03:17:54;;;;;;;4.57;3.25;;;9.50;99.90;;;;;;5032256;28;20041;-69
2022/01/28 03:21:11;;;;;;;5.00;3.05;;;9.50;99.90;;;;;;5031255;28;20045;-69
2022/01/28 03:24:15;;;;;;;7.75;3.65;;;9.50;99.90;;;;;;5031418;28;20369;-69
2022/01/28 03:27:44;;;;;;;5.65;3.65;;;9.50;99.90;;;;;;5031945;28;20626;-68
2022/01/28 03:30:44;;;;;;;7.60;4.60;;;9.50;99.90;;;;;;5031330;28;20038;-68
2022/01/28 03:33:48;;;;;;;10.20;3.85;;;9.50;99.90;;;;;;5031659;28;20041;-69
2022/01/28 03:36:52;;;;;;;7.65;3.85;;;9.40;99.90;;;;;;5031788;28;20036;-69
2022/01/28 03:39:56;;;;;;;7.70;4.53;;;9.40;99.90;;;;;;5030794;28;20180;-68
2022/01/28 03:43:02;;;;;;;5.32;3.22;;;9.40;99.90;;;;;;5031547;28;20034;-69
2022/01/28 03:46:06;;;;;;;6.53;3.65;;;9.40;99.90;;;;;;5031339;28;20034;-68
2022/01/28 03:49:11;;;;;;;5.63;3.45;;;9.40;99.90;;;;;;5030605;28;20041;-68
2022/01/28 03:52:15;;;;;;;7.95;3.85;;;9.40;99.90;;;;;;5031180;28;20041;-68
2022/01/28 03:55:19;;;;;;;8.68;5.07;;;9.40;99.90;;;;;;5031386;28;20041;-69
2022/01/28 03:58:25;;;;;;;11.25;4.97;;;9.40;99.90;;;;;;5030716;28;20041;-68
2022/01/28 04:01:35;;;;;;;7.93;4.90;;;9.40;99.90;;;;;;5031166;28;20061;-68
2022/01/28 04:11:29;;;;;;;10.40;4.93;;;9.40;99.90;;;;;;5030995;28;20045;-69
2022/01/28 04:15:00;;;;;;;4.43;3.05;;;9.40;99.90;;;;;;5031198;28;20060;-68
2022/01/28 04:18:04;;;;;;;5.85;2.72;;;9.40;99.90;;;;;;5030416;28;20046;-68
2022/01/28 04:21:08;;;;;;;7.07;3.25;;;9.40;99.90;;;;;;5030541;28;20046;-69
2022/01/28 04:24:13;;;;;;;11.80;4.55;;;9.40;99.90;;;;;;5030851;28;20393;-68
2022/01/28 04:27:17;;;;;;;11.30;4.60;;;9.40;99.90;;;;;;5030791;28;20056;-68
2022/01/28 04:30:22;;;;;;;5.60;2.92;;;9.40;99.90;;;;;;5030102;28;20048;-69
2022/01/28 04:33:27;;;;;;;7.10;3.58;;;9.40;99.90;;;;;;5030526;28;20041;-68
2022/01/28 04:36:36;;;;;;;7.97;3.35;;;9.50;99.90;;;;;;5030445;28;20045;-68
2022/01/28 04:46:51;;;;;;;5.45;3.35;;;9.50;99.90;;;;;;5030669;28;20045;-68
2022/01/28 04:49:47;;;;;;;5.28;3.10;;;9.60;99.90;;;;;;5030559;28;20037;-68
2022/01/28 04:59:34;;;;;;;13.38;5.03;;;9.60;99.90;;;;;;5029537;28;20310;-69
2022/01/28 05:06:20;;;;;;;41.38;16.88;;;9.60;99.90;;;;;;5030330;28;20040;-69
2022/01/28 05:29:12;;;;;;;3.65;2.83;;;9.40;99.90;;;;;;5029645;28;20041;-69
2022/01/28 05:32:17;;;;;;;7.20;3.80;;;9.50;99.90;;;;;;5029754;28;20384;-69
2022/01/28 05:35:22;;;;;;;6.47;3.30;;;9.50;99.90;;;;;;5029980;28;20045;-69
2022/01/28 05:38:28;;;;;;;7.63;3.38;;;9.50;99.90;;;;;;5029542;28;20049;-69
2022/01/28 05:41:32;;;;;;;8.27;3.13;;;9.50;99.90;;;;;;5030866;28;20037;-69
2022/01/28 05:44:37;;;;;;;5.70;2.90;;;9.60;99.90;;;;;;5029992;28;20050;-68
2022/01/28 05:47:40;;;;;;;4.13;2.75;;;9.50;99.90;;;;;;5030034;28;20050;-69
2022/01/28 05:50:44;;;;;;;6.78;2.78;;;9.50;99.90;;;;;;5029196;28;20053;-69
2022/01/28 05:53:49;;;;;;;6.55;3.00;;;9.50;99.90;;;;;;5029835;28;20037;-68
2022/01/28 05:56:53;;;;;;;7.40;3.35;;;9.50;99.90;;;;;;5029976;28;20037;-68
2022/01/28 05:59:57;;;;;;;8.13;2.78;;;9.50;99.90;;;;;;5028633;28;20057;-69
2022/01/28 06:03:02;;;;;;;5.63;3.42;;;9.50;99.90;;;;;;5029687;28;20042;-69
2022/01/28 06:06:07;;;;;;;7.95;3.45;;;9.60;99.90;;;;;;5033530;28;20038;-68
2022/01/28 06:09:12;;;;;;;11.40;5.32;;;9.60;99.90;;;;;;5032057;28;20369;-69
2022/01/28 06:12:16;;;;;;;8.07;3.92;;;9.60;99.90;;;;;;5033305;28;20044;-69
2022/01/28 06:15:22;;;;;;;14.35;5.05;;;9.50;99.90;;;;;;5032771;28;20041;-68
2022/01/28 06:18:26;;;;;;;11.40;4.07;;;9.50;99.90;;;;;;5031767;28;20503;-69
2022/01/28 06:21:29;;;;;;;11.20;4.85;;;9.60;99.90;;;;;;5033172;28;20045;-69
2022/01/28 06:24:33;;;;;;;12.75;4.68;;;9.50;99.90;;;;;;5032757;28;20041;-68
2022/01/28 06:27:37;;;;;;;7.95;4.10;;;9.60;99.90;;;;;;5032835;28;20044;-69
2022/01/28 06:30:41;;;;;;;7.05;3.70;;;9.50;99.90;;;;;;5032688;28;20033;-68
2022/01/28 06:33:45;;;;;;;10.35;3.38;;;9.50;99.90;;;;;;5032740;28;20037;-68
2022/01/28 06:36:49;;;;;;;7.55;4.07;;;9.50;99.90;;;;;;5033543;28;20040;-68
2022/01/28 06:39:54;;;;;;;16.33;4.40;;;9.50;99.90;;;;;;5032804;28;20373;-68
2022/01/28 06:42:59;;;;;;;13.02;4.50;;;9.40;99.90;;;;;;5031871;28;20072;-68
2022/01/28 06:46:02;;;;;;;15.85;5.95;;;9.40;99.90;;;;;;5032901;28;20050;-68
2022/01/28 06:49:06;;;;;;;9.57;4.15;;;9.40;99.90;;;;;;5032003;28;20049;-69
2022/01/28 06:52:10;;;;;;;8.93;4.00;;;9.40;99.90;;;;;;5033756;28;20389;-68
2022/01/28 06:55:16;;;;;;;22.67;7.70;;;9.40;99.90;;;;;;5032640;28;20037;-69
2022/01/28 06:58:20;;;;;;;10.23;4.40;;;9.40;99.90;;;;;;5031139;28;20060;-69
2022/01/28 07:01:24;;;;;;;9.57;3.80;;;9.30;99.90;;;;;;5027137;28;20032;-69
2022/01/28 07:04:29;;;;;;;21.20;7.95;;;9.30;99.90;;;;;;5032192;28;20034;-69
2022/01/28 07:07:34;;;;;;;13.63;5.03;;;9.40;99.90;;;;;;5032227;28;20049;-68
2022/01/28 07:10:38;;;;;;;9.23;3.70;;;9.40;99.90;;;;;;5032223;28;20044;-68
2022/01/28 07:13:42;;;;;;;11.52;5.88;;;9.40;99.90;;;;;;5029760;28;20021;-68
2022/01/28 07:16:47;;;;;;;8.68;4.43;;;9.50;99.90;;;;;;5029557;28;20048;-69
2022/01/28 07:19:52;;;;;;;7.15;4.03;;;9.50;99.90;;;;;;5028204;28;20042;-70
2022/01/28 07:22:56;;;;;;;11.90;4.13;;;9.60;99.90;;;;;;5029469;28;20049;-69
2022/01/28 07:26:00;;;;;;;9.45;4.40;;;9.60;99.90;;;;;;5031094;28;20045;-70
2022/01/28 07:29:04;;;;;;;11.85;4.47;;;9.70;99.90;;;;;;5026618;28;20037;-69
2022/01/28 07:32:08;;;;;;;7.82;3.90;;;9.80;99.90;;;;;;5012015;28;20041;-71
2022/01/28 07:35:14;;;;;;;7.22;4.38;;;9.90;99.90;;;;;;5024599;28;20045;-69
2022/01/28 07:38:18;;;;;;;7.45;3.58;;;10.00;99.90;;;;;;5027342;28;20385;-70
2022/01/28 07:41:23;;;;;;;5.40;3.70;;;10.00;99.90;;;;;;5031692;28;20052;-69
2022/01/28 07:44:27;;;;;;;6.43;3.53;;;10.20;99.90;;;;;;5031439;28;20044;-70
2022/01/28 07:47:32;;;;;;;7.20;4.00;;;10.20;99.90;;;;;;5031317;28;20056;-70
2022/01/28 07:50:37;;;;;;;7.47;4.65;;;10.40;99.90;;;;;;5031169;28;20044;-70
2022/01/28 07:53:41;;;;;;;6.93;3.60;;;10.60;99.90;;;;;;5031017;28;20045;-70
2022/01/28 07:56:52;;;;;;;7.13;3.35;;;10.70;99.90;;;;;;5030899;28;20064;-69
2022/01/28 07:59:57;;;;;;;9.18;4.68;;;10.70;99.90;;;;;;5030205;28;20368;-70
2022/01/28 08:03:02;;;;;;;9.68;3.92;;;10.60;99.90;;;;;;5027061;28;20048;-69
2022/01/28 08:06:06;;;;;;;6.88;3.58;;;10.50;99.90;;;;;;5031464;28;20385;-70
2022/01/28 08:09:10;;;;;;;7.60;3.28;;;10.50;99.90;;;;;;5021735;28;20056;-70
2022/01/28 08:12:14;;;;;;;7.15;4.10;;;10.60;99.90;;;;;;5021083;28;20396;-69
2022/01/28 08:15:19;;;;;;;9.48;4.03;;;10.90;99.90;;;;;;5027119;28;20511;-70
2022/01/28 08:18:23;;;;;;;7.63;3.30;;;11.20;99.90;;;;;;5024283;28;20045;-67
2022/01/28 08:21:29;;;;;;;7.57;3.10;;;11.50;99.90;;;;;;5031550;28;20076;-68
2022/01/28 08:24:33;;;;;;;8.82;3.10;;;11.80;99.90;;;;;;5016686;28;20041;-70
2022/01/28 08:27:37;;;;;;;11.15;3.45;;;11.90;99.90;;;;;;5029544;28;20400;-71
2022/01/28 08:30:41;;;;;;;7.43;3.55;;;11.90;99.90;;;;;;5026590;28;20499;-70
2022/01/28 08:33:45;;;;;;;7.75;3.45;;;11.70;99.90;;;;;;5030665;28;20044;-69
2022/01/28 08:36:49;;;;;;;12.23;4.57;;;11.40;99.90;;;;;;5020761;28;20048;-69
2022/01/28 08:39:53;;;;;;;15.55;5.30;;;11.10;99.90;;;;;;5018777;28;20400;-70
2022/01/28 08:42:57;;;;;;;12.60;4.97;;;10.90;99.90;;;;;;5024121;28;20502;-70
2022/01/28 08:46:01;;;;;;;9.77;4.68;;;10.70;99.90;;;;;;5012663;28;20049;-69
2022/01/28 08:49:06;;;;;;;9.98;3.67;;;10.50;99.90;;;;;;5012482;28;20052;-70
2022/01/28 08:52:11;;;;;;;9.15;3.90;;;10.50;99.90;;;;;;5028897;28;20044;-69
2022/01/28 08:55:15;;;;;;;4.60;3.28;;;10.50;99.90;;;;;;5029381;28;20040;-70
2022/01/28 08:58:22;;;;;;;14.75;3.40;;;10.40;99.90;;;;;;5020488;28;20052;-69
2022/01/28 09:01:28;;;;;;;8.15;3.63;;;10.50;99.90;;;;;;5018070;28;20125;-70
2022/01/28 09:04:33;;;;;;;85.00;34.03;;;10.50;99.90;;;;;;5030720;28;20048;-69
2022/01/28 09:07:37;;;;;;;370.02;148.48;;;10.50;99.90;;;;;;5029216;28;20503;-69
2022/01/28 09:10:45;;;;;;;349.15;134.50;;;10.50;99.90;;;;;;5025370;28;20044;-69
2022/01/28 09:13:50;;;;;;;49.40;21.40;;;10.50;99.90;;;;;;5023713;28;20473;-70
2022/01/28 09:16:56;;;;;;;19.75;8.80;;;10.60;99.90;;;;;;5022263;28;20044;-69
2022/01/28 09:20:02;;;;;;;15.20;7.20;;;10.80;99.90;;;;;;5021326;28;20606;-69
2022/01/28 09:23:08;;;;;;;6.32;3.50;;;10.90;99.90;;;;;;5024153;28;20040;-69
2022/01/28 09:26:13;;;;;;;13.10;4.10;;;11.10;99.90;;;;;;5022252;28;20323;-69
2022/01/28 09:29:17;;;;;;;6.53;3.50;;;11.20;99.90;;;;;;5023429;28;20077;-70
2022/01/28 09:32:21;;;;;;;4.20;2.88;;;11.20;99.90;;;;;;5023542;28;20068;-69
2022/01/28 09:35:26;;;;;;;7.85;4.10;;;11.20;99.90;;;;;;5022532;28;20077;-68
2022/01/28 09:38:30;;;;;;;6.78;3.38;;;11.30;99.90;;;;;;5023743;28;20053;-68
2022/01/28 09:41:36;;;;;;;11.45;3.25;;;11.40;99.90;;;;;;5024921;28;20048;-68
2022/01/28 09:44:42;;;;;;;8.25;3.95;;;11.80;99.90;;;;;;5026013;28;20507;-70
2022/01/28 09:47:46;;;;;;;5.32;3.55;;;12.30;99.90;;;;;;5026644;28;20048;-68
2022/01/28 09:50:52;;;;;;;8.80;4.25;;;12.60;99.90;;;;;;5023991;28;20388;-68
2022/01/28 09:53:58;;;;;;;13.65;4.32;;;12.40;99.90;;;;;;5027023;28;20044;-69
2022/01/28 09:57:04;;;;;;;6.88;3.45;;;12.30;99.90;;;;;;5027532;28;20052;-69
2022/01/28 10:00:10;;;;;;;10.23;3.65;;;12.20;99.90;;;;;;5022025;28;20128;-68
2022/01/28 10:03:19;;;;;;;7.90;3.75;;;12.10;99.90;;;;;;5025873;28;20060;-69
2022/01/28 10:06:35;;;;;;;6.93;3.47;;;12.30;99.90;;;;;;5025337;28;20048;-69
2022/01/28 10:09:57;;;;;;;8.25;3.30;;;12.70;99.90;;;;;;5023600;28;20527;-68
2022/01/28 10:13:32;;;;;;;6.35;3.40;;;13.30;99.90;;;;;;5025774;28;20048;-68
2022/01/28 10:16:36;;;;;;;10.63;3.35;;;13.70;99.90;;;;;;5025853;28;20503;-69
2022/01/28 10:19:44;;;;;;;7.53;3.40;;;14.20;99.90;;;;;;5021148;28;20056;-69
2022/01/28 10:23:01;;;;;;;7.65;3.20;;;14.60;99.90;;;;;;5023202;28;20384;-68
2022/01/28 10:26:06;;;;;;;5.03;2.85;;;15.30;99.90;;;;;;5026505;28;20056;-69
2022/01/28 10:29:27;;;;;;;6.20;3.15;;;16.10;99.90;;;;;;5026085;28;20418;-69
2022/01/28 10:32:32;;;;;;;5.27;2.67;;;17.20;99.90;;;;;;5024887;28;20056;-69
2022/01/28 10:35:37;;;;;;;6.35;2.80;;;17.50;99.90;;;;;;5025089;28;20041;-68
2022/01/28 10:38:42;;;;;;;5.15;2.70;;;16.80;99.90;;;;;;5025454;28;20052;-69
2022/01/28 10:41:57;;;;;;;7.88;3.85;;;16.80;99.90;;;;;;5025492;28;20506;-69
2022/01/28 10:45:16;;;;;;;8.30;3.50;;;17.60;99.90;;;;;;5031803;28;20045;-68
2022/01/28 10:48:24;;;;;;;8.35;2.88;;;18.70;99.90;;;;;;5031097;28;20048;-68
2022/01/28 10:51:49;;;;;;;5.18;2.63;;;19.30;99.90;;;;;;5032494;28;20036;-69
2022/01/28 10:54:57;;;;;;;4.05;2.47;;;21.30;98.70;;;;;;5032256;28;20518;-69
2022/01/28 10:58:04;;;;;;;10.98;2.95;;;20.50;98.00;;;;;;5023082;28;20040;-68
2022/01/28 11:01:13;;;;;;;9.15;2.50;;;21.30;97.60;;;;;;5032781;28;20052;-68
2022/01/28 11:04:19;;;;;;;4.85;2.90;;;22.50;96.60;;;;;;5025510;28;20044;-68
2022/01/28 11:07:23;;;;;;;4.32;2.75;;;24.70;93.80;;;;;;5026358;28;20519;-68
2022/01/28 11:10:28;;;;;;;6.10;2.38;;;23.20;92.80;;;;;;5032675;28;20052;-69
2022/01/28 11:13:34;;;;;;;4.45;2.55;;;21.50;94.10;;;;;;5032188;28;20044;-68
2022/01/28 11:16:40;;;;;;;8.38;2.97;;;21.00;95.80;;;;;;5031308;28;20052;-69
2022/01/28 11:19:46;;;;;;;6.03;2.97;;;23.00;94.10;;;;;;5030412;28;20503;-69
2022/01/28 11:23:25;;;;;;;6.15;2.88;;;23.70;92.20;;;;;;5022322;28;20519;-68
2022/01/28 11:26:54;;;;;;;8.70;2.85;;;22.70;92.60;;;;;;5018602;28;20033;-68
2022/01/28 11:30:19;;;;;;;5.03;2.58;;;24.50;91.80;;;;;;5029729;28;20413;-70
2022/01/28 11:33:45;;;;;;;10.95;2.88;;;26.90;88.40;;;;;;5031874;28;20052;-69
2022/01/28 11:36:50;;;;;;;5.47;2.83;;;27.30;85.30;;;;;;5024003;28;20040;-70
2022/01/28 11:40:12;;;;;;;6.90;3.00;;;27.60;82.20;;;;;;5030350;28;20400;-69
2022/01/28 11:43:22;;;;;;;5.35;2.38;;;27.20;81.20;;;;;;5032277;28;20040;-69
2022/01/28 11:46:31;;;;;;;7.60;2.90;;;27.00;80.00;;;;;;5031866;28;20044;-69
2022/01/28 11:49:58;;;;;;;6.38;2.72;;;28.10;79.50;;;;;;5031502;28;20051;-70
2022/01/28 11:53:24;;;;;;;5.70;2.72;;;28.80;77.70;;;;;;5015742;28;20056;-70
2022/01/28 11:56:30;;;;;;;8.90;3.20;;;30.10;75.10;;;;;;5031484;28;20032;-70
2022/01/28 11:59:34;;;;;;;9.05;3.38;;;30.70;72.80;;;;;;5015358;28;20039;-69
2022/01/28 12:02:49;;;;;;;7.40;2.90;;;30.40;71.00;;;;;;5028316;28;20045;-70
2022/01/28 12:05:57;;;;;;;6.65;3.20;;;31.00;70.50;;;;;;5000116;28;20053;-70
2022/01/28 12:09:02;;;;;;;4.80;2.78;;;31.00;69.60;;;;;;5019916;28;20040;-71
2022/01/28 12:12:09;;;;;;;9.60;3.28;;;31.90;68.30;;;;;;5028787;28;20288;-70
2022/01/28 12:15:17;;;;;;;8.00;2.97;;;32.20;66.80;;;;;;5019627;28;20052;-70
2022/01/28 12:18:22;;;;;;;7.30;3.72;;;32.30;65.70;;;;;;5021691;28;20060;-70
2022/01/28 12:21:28;;;;;;;7.80;3.13;;;32.90;64.10;;;;;;5024600;28;20056;-70
2022/01/28 12:24:34;;;;;;;14.73;4.35;;;32.70;63.20;;;;;;5029425;28;20040;-70
2022/01/28 12:27:38;;;;;;;6.05;3.00;;;32.90;63.90;;;;;;5018530;28;20510;-71
2022/01/28 12:30:44;;;;;;;7.45;2.88;;;33.50;62.50;;;;;;5021276;28;20496;-70
2022/01/28 12:33:52;;;;;;;7.32;3.08;;;32.70;62.30;;;;;;5021781;28;20509;-70
2022/01/28 12:36:58;;;;;;;5.50;2.92;;;32.90;62.00;;;;;;5018428;28;20392;-70
2022/01/28 12:40:13;;;;;;;5.40;3.00;;;32.60;61.40;;;;;;5018899;28;20073;-70
2022/01/28 12:43:23;;;;;;;6.80;3.10;;;31.70;61.90;;;;;;5005659;28;20041;-70
2022/01/28 12:46:28;;;;;;;5.57;3.40;;;30.80;62.40;;;;;;5017855;28;20037;-69
2022/01/28 12:49:34;;;;;;;5.88;3.08;;;30.50;61.60;;;;;;5020148;28;20041;-71
2022/01/28 12:52:39;;;;;;;6.80;3.15;;;29.50;63.30;;;;;;5018630;28;20061;-70
2022/01/28 12:55:43;;;;;;;5.47;3.10;;;30.20;63.30;;;;;;5020428;28;20056;-71
2022/01/28 12:58:50;;;;;;;6.80;3.20;;;30.10;63.00;;;;;;5021611;28;20496;-70
2022/01/28 13:01:56;;;;;;;6.00;3.25;;;30.70;63.40;;;;;;5022639;28;20492;-70
2022/01/28 13:11:49;;;;;;;5.82;3.10;;;30.20;60.80;;;;;;5022867;28;20380;-70
2022/01/28 13:14:54;;;;;;;6.15;3.22;;;29.30;61.30;;;;;;5026911;28;20053;-71
2022/01/28 13:18:01;;;;;;;7.18;3.38;;;30.00;61.90;;;;;;5014961;28;20121;-71
2022/01/28 13:21:07;;;;;;;7.00;3.15;;;29.60;61.90;;;;;;5029417;28;20049;-70
2022/01/28 13:24:16;;;;;;;7.00;3.30;;;28.90;62.50;;;;;;5026442;28;20049;-70
2022/01/28 13:27:21;;;;;;;6.40;3.70;;;29.50;61.50;;;;;;5024479;28;20048;-70
2022/01/28 13:30:27;;;;;;;8.95;3.72;;;29.20;62.10;;;;;;5027441;28;20052;-70
2022/01/28 13:33:33;;;;;;;9.18;3.72;;;29.30;61.60;;;;;;5024405;28;20064;-71
2022/01/28 13:36:45;;;;;;;6.70;3.60;;;29.20;61.40;;;;;;5021740;28;20080;-70
2022/01/28 13:39:50;;;;;;;6.55;3.92;;;28.70;61.70;;;;;;5031148;28;20041;-70
2022/01/28 13:43:16;;;;;;;12.25;6.05;;;28.50;62.80;;;;;;5030639;28;20044;-70
2022/01/28 13:46:20;;;;;;;5.57;3.45;;;28.70;62.30;;;;;;5021513;28;20040;-70
2022/01/28 13:49:35;;;;;;;17.85;3.88;;;29.20;60.10;;;;;;5021387;28;20051;-70
2022/01/28 13:52:46;;;;;;;9.75;3.40;;;29.40;60.20;;;;;;5022903;28;20400;-70
2022/01/28 13:55:52;;;;;;;6.20;2.65;;;29.10;59.20;;;;;;5027287;28;20049;-71
2022/01/28 13:58:58;;;;;;;4.15;2.55;;;28.90;57.30;;;;;;5021314;28;20056;-70
2022/01/28 14:02:09;;;;;;;5.63;2.80;;;28.00;56.80;;;;;;5029205;28;20056;-71
2022/01/28 14:05:14;;;;;;;10.60;3.30;;;27.70;57.20;;;;;;5029219;28;20503;-70
2022/01/28 14:08:37;;;;;;;4.13;2.83;;;27.70;58.20;;;;;;5008980;28;20045;-71
2022/01/28 14:11:47;;;;;;;6.00;2.40;;;28.10;57.50;;;;;;5028299;28;20047;-70
2022/01/28 14:14:52;;;;;;;4.53;1.98;;;28.30;56.00;;;;;;5025822;28;20397;-70
2022/01/28 14:17:57;;;;;;;4.95;2.20;;;28.20;54.40;;;;;;5026505;28;20049;-70
2022/01/28 14:21:01;;;;;;;2.72;2.00;;;26.80;51.40;;;;;;5027097;28;20056;-71
2022/01/28 14:24:06;;;;;;;4.43;2.83;;;25.70;50.20;;;;;;5029708;28;20069;-69
2022/01/28 14:27:14;;;;;;;2.25;1.75;;;24.90;50.40;;;;;;5021337;28;20076;-68
2022/01/28 14:30:35;;;;;;;4.20;1.90;;;24.10;50.10;;;;;;5032881;28;20064;-69
2022/01/28 14:33:39;;;;;;;3.15;2.10;;;23.80;49.30;;;;;;5033931;28;20049;-69
2022/01/28 14:36:44;;;;;;;2.45;1.58;;;23.80;49.10;;;;;;5029303;28;20056;-69
2022/01/28 14:39:49;;;;;;;2.50;1.85;;;23.70;49.00;;;;;;5029321;28;20056;-69
2022/01/28 14:42:54;;;;;;;2.78;2.17;;;23.70;48.60;;;;;;5033710;28;20045;-68
2022/01/28 14:45:58;;;;;;;3.40;2.10;;;23.80;48.90;;;;;;5013831;28;20048;-69
2022/01/28 14:49:05;;;;;;;4.30;2.08;;;23.80;48.60;;;;;;5030704;28;20574;-69
2022/01/28 14:52:17;;;;;;;3.60;2.30;;;23.50;48.80;;;;;;5033125;28;20384;-70
2022/01/28 14:55:21;;;;;;;3.53;1.60;;;23.80;48.00;;;;;;5033723;28;20048;-69
2022/01/28 14:58:26;;;;;;;2.83;1.90;;;23.50;47.40;;;;;;5028570;28;20037;-69
2022/01/28 15:01:30;;;;;;;5.88;1.90;;;22.50;46.90;;;;;;5025220;28;20053;-68
2022/01/28 15:04:34;;;;;;;5.20;2.17;;;22.30;47.70;;;;;;5032831;28;20036;-69
2022/01/28 15:07:39;;;;;;;5.80;1.95;;;21.90;47.90;;;;;;5016672;28;20057;-69
2022/01/28 15:10:44;;;;;;;5.00;2.08;;;21.80;48.60;;;;;;5032774;28;20052;-69
2022/01/28 15:13:49;;;;;;;4.25;2.03;;;21.70;48.60;;;;;;5033233;28;20408;-69
2022/01/28 15:16:54;;;;;;;2.42;1.95;;;21.80;48.60;;;;;;5032837;28;20052;-69
2022/01/28 15:19:59;;;;;;;5.13;2.38;;;21.20;49.30;;;;;;5029325;28;20045;-69
2022/01/28 15:23:05;;;;;;;5.35;1.83;;;21.10;49.60;;;;;;5032398;28;20392;-69
2022/01/28 15:26:09;;;;;;;5.53;2.20;;;20.90;49.30;;;;;;5024571;28;20059;-69
2022/01/28 15:36:01;;;;;;;4.28;2.72;;;19.80;50.40;;;;;;5021119;28;20068;-68
2022/01/28 15:39:05;;;;;;;3.42;2.00;;;19.60;50.70;;;;;;5031078;28;20830;-69
2022/01/28 15:42:10;;;;;;;3.58;2.40;;;19.30;50.80;;;;;;5031103;28;20049;-68
2022/01/28 15:45:14;;;;;;;4.45;2.50;;;19.30;51.00;;;;;;5031418;28;20060;-68
2022/01/28 15:48:19;;;;;;;5.05;2.20;;;19.10;50.70;;;;;;5028978;28;20041;-69
2022/01/28 15:51:23;;;;;;;4.25;2.47;;;18.80;51.60;;;;;;5031013;28;20048;-69
2022/01/28 15:54:28;;;;;;;5.55;2.30;;;18.40;52.30;;;;;;5027209;28;20040;-69
2022/01/28 15:57:32;;;;;;;5.55;2.40;;;17.90;51.70;;;;;;5028590;28;20036;-69
2022/01/28 16:00:38;;;;;;;4.03;2.53;;;17.50;52.40;;;;;;5031281;28;20048;-69
2022/01/28 16:03:42;;;;;;;3.90;2.45;;;16.90;52.40;;;;;;5026130;28;20040;-69
2022/01/28 16:06:48;;;;;;;4.32;2.33;;;16.20;52.20;;;;;;5029856;28;20045;-69
2022/01/28 16:09:57;;;;;;;5.22;2.38;;;15.20;53.60;;;;;;5030051;28;20397;-68
2022/01/28 16:19:40;;;;;;;6.78;2.47;;;13.00;57.10;;;;;;5010568;28;20504;-69
2022/01/28 16:22:44;;;;;;;6.80;2.22;;;12.50;57.70;;;;;;5010972;28;20041;-69
2022/01/28 16:25:49;;;;;;;3.65;2.00;;;12.10;57.60;;;;;;5011077;28;20045;-69
2022/01/28 16:28:54;;;;;;;3.95;2.17;;;11.70;58.10;;;;;;5009793;28;20048;-68
2022/01/28 16:31:58;;;;;;;5.63;2.33;;;11.50;58.70;;;;;;5010968;28;20472;-68
2022/01/28 16:35:04;;;;;;;4.15;2.10;;;11.30;58.90;;;;;;5010261;28;20049;-68
2022/01/28 16:38:07;;;;;;;4.60;2.35;;;11.10;59.20;;;;;;5010729;28;20052;-69
2022/01/28 16:41:13;;;;;;;4.85;3.03;;;10.90;59.80;;;;;;5010327;28;20052;-68
2022/01/28 16:44:23;;;;;;;4.50;2.25;;;10.70;60.10;;;;;;5010863;28;20099;-68
2022/01/28 16:47:28;;;;;;;4.32;2.78;;;10.50;59.60;;;;;;5010383;28;20045;-68
2022/01/28 16:50:33;;;;;;;4.68;2.30;;;10.40;60.40;;;;;;5010168;28;20393;-69
2022/01/28 16:53:38;;;;;;;3.97;2.38;;;10.20;60.60;;;;;;5010630;28;20056;-69
2022/01/28 16:56:42;;;;;;;6.43;2.60;;;10.10;60.60;;;;;;5010684;28;20049;-69
2022/01/28 16:59:46;;;;;;;5.38;3.10;;;10.00;60.90;;;;;;5009704;28;20048;-68
2022/01/28 17:02:53;;;;;;;7.05;3.60;;;9.90;61.60;;;;;;5010382;28;20049;-69
2022/01/28 17:05:57;;;;;;;6.20;2.92;;;9.70;61.70;;;;;;5010452;28;20401;-69
2022/01/28 17:09:02;;;;;;;9.45;3.65;;;9.60;61.50;;;;;;5009734;28;20026;-68
2022/01/28 17:15:22;;;;;;;9.27;3.72;;;9.50;61.40;;;;;;5021221;28;20046;-69
2022/01/28 17:18:26;;;;;;;12.15;4.85;;;9.30;61.80;;;;;;5009645;28;20366;-70
2022/01/28 17:21:32;;;;;;;16.75;6.32;;;9.30;63.20;;;;;;5010361;28;20057;-70
2022/01/28 17:24:37;;;;;;;21.55;10.63;;;9.10;63.60;;;;;;5010546;28;20072;-70
2022/01/28 17:27:42;;;;;;;34.88;15.13;;;9.00;64.10;;;;;;5010525;28;20381;-70
2022/01/28 17:30:45;;;;;;;12.57;6.82;;;8.90;64.70;;;;;;5010513;28;20535;-70
2022/01/28 17:33:49;;;;;;;11.40;6.50;;;8.80;63.20;;;;;;5010738;28;20049;-70
2022/01/28 17:36:53;;;;;;;14.15;7.07;;;8.90;62.80;;;;;;5010422;28;20295;-71
2022/01/28 17:40:04;;;;;;;19.08;8.65;;;8.90;62.20;;;;;;5010010;28;20496;-70
2022/01/28 17:43:09;;;;;;;16.10;6.95;;;8.90;62.40;;;;;;5010802;28;20065;-70
2022/01/28 17:46:13;;;;;;;9.25;5.32;;;8.80;62.80;;;;;;5010331;28;20049;-70
2022/01/28 17:49:18;;;;;;;21.85;9.55;;;8.70;61.70;;;;;;5009843;28;20348;-70
2022/01/28 17:52:22;;;;;;;14.80;6.97;;;8.60;63.70;;;;;;5010224;28;20516;-70
2022/01/28 17:55:29;;;;;;;23.42;12.52;;;8.50;62.80;;;;;;5010236;28;20037;-70
2022/01/28 17:58:34;;;;;;;12.70;6.80;;;8.40;64.30;;;;;;5009605;28;20495;-70
2022/01/28 18:01:38;;;;;;;22.85;12.00;;;8.40;63.50;;;;;;5012864;28;20045;-69